createdAt,value
2019-05-17T00:01:41.095Z,21.03
2019-05-17T00:06:47.451Z,20.83
2019-05-17T00:11:50.939Z,20.33
2019-05-17T00:16:57.105Z,19.93
2019-05-17T00:22:01.111Z,20.90
2019-05-17T00:27:06.739Z,20.53
2019-05-17T00:32:10.902Z,19.90
2019-05-17T00:37:17.178Z,18.83
2019-05-17T00:42:21.028Z,19.23
2019-05-17T00:47:26.579Z,19.17
2019-05-17T00:52:31.851Z,19.10
2019-05-17T00:57:36.913Z,18.63
2019-05-17T01:02:41.350Z,16.53
2019-05-17T01:07:47.046Z,18.33
2019-05-17T01:12:52.071Z,18.07
2019-05-17T01:17:56.617Z,17.17
2019-05-17T01:23:01.152Z,16.67
2019-05-17T01:28:07.610Z,16.30
2019-05-17T01:33:12.486Z,16.23
2019-05-17T01:38:17.684Z,16.93
2019-05-17T01:43:22.265Z,17.23
2019-05-17T01:48:27.070Z,15.93
2019-05-17T01:53:32.502Z,16.17
2019-05-17T01:58:37.171Z,15.27
2019-05-17T02:03:41.795Z,15.07
2019-05-17T02:08:47.562Z,15.73
2019-05-17T02:13:51.922Z,15.23
2019-05-17T02:18:57.316Z,13.97
2019-05-17T02:24:01.662Z,13.57
2019-05-17T02:29:05.962Z,13.53
2019-05-17T02:34:13.880Z,13.63
2019-05-17T02:39:16.783Z,14.37
2019-05-17T02:44:23.433Z,14.67
2019-05-17T02:49:26.636Z,14.67
2019-05-17T02:54:32.803Z,13.33
2019-05-17T02:59:36.905Z,13.07
2019-05-17T03:04:43.286Z,13.07
2019-05-17T03:09:47.031Z,12.83
2019-05-17T03:14:52.886Z,12.20
2019-05-17T03:19:57.320Z,12.00
2019-05-17T03:25:03.166Z,10.87
2019-05-17T03:30:07.443Z,10.87
2019-05-17T03:35:16.972Z,10.67
2019-05-17T03:40:55.264Z,10.40
2019-05-17T03:45:23.033Z,11.13
2019-05-17T03:50:27.258Z,10.00
2019-05-17T03:55:33.329Z,10.27
2019-05-17T04:00:37.996Z,9.85
2019-05-17T04:05:43.084Z,9.97
2019-05-17T04:10:47.196Z,9.53
2019-05-17T04:15:53.040Z,9.57
2019-05-17T04:20:57.367Z,9.07
2019-05-17T04:26:04.189Z,9.47
2019-05-17T04:31:07.243Z,9.77
2019-05-17T04:36:13.091Z,9.77
2019-05-17T04:41:34.552Z,9.37
2019-05-17T04:46:23.738Z,9.60
2019-05-17T04:51:28.051Z,9.93
2019-05-17T04:56:33.422Z,10.13
2019-05-17T05:01:37.930Z,9.40
2019-05-17T05:06:43.563Z,9.67
2019-05-17T05:11:59.680Z,10.30
2019-05-17T05:16:54.331Z,9.83
2019-05-17T05:21:58.191Z,10.07
2019-05-17T05:27:02.597Z,9.40
2019-05-17T05:32:06.654Z,9.60
2019-05-17T05:37:12.502Z,10.23
2019-05-17T05:42:16.210Z,10.57
2019-05-17T05:47:22.178Z,10.80
2019-05-17T05:52:26.248Z,11.67
2019-05-17T05:57:32.195Z,11.30
2019-05-17T06:02:36.979Z,11.22
2019-05-17T06:07:41.876Z,11.37
2019-05-17T06:12:46.622Z,11.63
2019-05-17T06:17:52.016Z,11.87
2019-05-17T06:22:56.372Z,11.57
2019-05-17T06:28:01.599Z,12.63
2019-05-17T06:33:06.091Z,12.37
2019-05-17T06:38:12.120Z,12.13
2019-05-17T06:43:16.086Z,13.37
2019-05-17T06:48:22.331Z,12.43
2019-05-17T06:53:25.534Z,13.37
2019-05-17T06:58:31.536Z,13.40
2019-05-17T07:03:35.578Z,13.23
2019-05-17T07:08:40.511Z,12.67
2019-05-17T07:13:44.382Z,12.60
2019-05-17T07:18:49.406Z,13.13
2019-05-17T07:23:53.743Z,12.57
2019-05-17T07:28:59.294Z,12.67
2019-05-17T07:34:03.855Z,11.83
2019-05-17T07:39:10.594Z,11.90
2019-05-17T07:44:13.420Z,12.47
2019-05-17T07:49:19.965Z,12.17
2019-05-17T07:54:24.265Z,11.30
2019-05-17T07:59:29.466Z,8.57
2019-05-17T08:04:33.669Z,9.30
2019-05-17T08:09:40.266Z,7.63
2019-05-17T08:14:43.692Z,6.83
2019-05-17T08:19:49.643Z,7.23
2019-05-17T08:24:53.469Z,6.00
2019-05-17T08:29:59.780Z,5.30
2019-05-17T08:35:23.349Z,5.97
2019-05-17T08:40:27.559Z,4.80
2019-05-17T08:45:32.527Z,4.77
2019-05-17T08:50:36.543Z,4.23
2019-05-17T08:55:43.104Z,4.77
2019-05-17T09:00:50.518Z,4.70
2019-05-17T09:05:53.888Z,4.30
2019-05-17T09:11:00.374Z,4.20
2019-05-17T09:16:04.182Z,3.40
2019-05-17T09:21:09.703Z,3.77
2019-05-17T09:26:14.171Z,3.37
2019-05-17T09:31:20.387Z,3.80
2019-05-17T09:36:25.214Z,3.77
2019-05-17T09:41:29.455Z,3.97
2019-05-17T09:46:33.661Z,4.10
2019-05-17T09:51:39.635Z,3.50
2019-05-17T09:56:43.186Z,3.30
2019-05-17T10:01:49.388Z,3.40
2019-05-17T10:06:52.886Z,2.97
2019-05-17T10:11:56.755Z,3.67
2019-05-17T10:17:01.174Z,3.83
2019-05-17T10:22:05.395Z,3.83
2019-05-17T10:27:10.914Z,4.20
2019-05-17T10:32:14.863Z,4.20
2019-05-17T10:37:20.372Z,4.47
2019-05-17T10:42:24.633Z,4.10
2019-05-17T10:47:30.099Z,4.77
2019-05-17T10:52:34.294Z,5.17
2019-05-17T10:57:38.550Z,5.50
2019-05-17T11:02:42.847Z,5.57
2019-05-17T11:07:47.398Z,6.43
2019-05-17T11:12:51.354Z,6.40
2019-05-17T11:17:55.568Z,5.97
2019-05-17T11:22:59.462Z,5.83
2019-05-17T11:28:03.757Z,5.77
2019-05-17T11:33:07.867Z,5.40
2019-05-17T11:38:11.998Z,6.43
2019-05-17T11:43:16.540Z,5.80
2019-05-17T11:48:20.492Z,6.60
2019-05-17T11:53:24.363Z,6.90
2019-05-17T11:58:28.823Z,6.47
2019-05-17T12:03:33.088Z,6.83
2019-05-17T12:08:37.363Z,6.80
2019-05-17T12:13:43.633Z,7.20
2019-05-17T12:18:47.546Z,7.43
2019-05-17T12:23:51.666Z,7.77
2019-05-17T12:28:55.870Z,7.03
2019-05-17T12:34:00.118Z,7.73
2019-05-17T12:39:05.487Z,6.63
2019-05-17T12:44:09.678Z,6.57
2019-05-17T12:49:13.962Z,7.40
2019-05-17T12:54:18.503Z,6.93
2019-05-17T12:59:22.469Z,7.13
2019-05-17T13:04:26.687Z,7.13
2019-05-17T13:09:31.332Z,6.10
2019-05-17T13:14:35.380Z,6.00
2019-05-17T13:19:39.816Z,4.97
2019-05-17T13:24:44.126Z,5.97
2019-05-17T13:29:49.711Z,5.67
2019-05-17T13:34:54.239Z,5.53
2019-05-17T13:39:58.853Z,5.23
2019-05-17T13:45:03.411Z,5.60
2019-05-17T13:50:08.974Z,5.93
2019-05-17T13:55:13.294Z,6.10
2019-05-17T14:00:29.364Z,5.73
2019-05-17T14:05:33.384Z,6.10
2019-05-17T14:10:37.255Z,6.83
2019-05-17T14:15:42.539Z,7.20
2019-05-17T14:20:46.487Z,7.93
2019-05-17T14:25:50.606Z,7.60
2019-05-17T14:30:54.804Z,7.63
2019-05-17T14:35:58.755Z,7.90
2019-05-17T14:41:08.075Z,7.47
2019-05-17T14:46:08.224Z,6.40
2019-05-17T14:51:12.509Z,6.63
2019-05-17T14:56:16.852Z,7.77
2019-05-17T15:01:20.724Z,7.90
2019-05-17T15:06:24.892Z,8.90
2019-05-17T15:11:28.763Z,10.17
2019-05-17T15:16:32.901Z,8.47
2019-05-17T15:21:36.767Z,7.73
2019-05-17T15:26:40.697Z,7.20
2019-05-17T15:31:44.554Z,8.07
2019-05-17T15:36:48.748Z,5.63
2019-05-17T15:41:53.034Z,6.27
2019-05-17T15:46:57.039Z,7.20
2019-05-17T15:52:01.587Z,6.17
2019-05-17T15:57:06.206Z,6.77
2019-05-17T16:02:10.438Z,6.10
2019-05-17T16:07:14.303Z,5.43
2019-05-17T16:12:19.694Z,4.93
2019-05-17T16:17:23.558Z,5.83
2019-05-17T16:22:27.787Z,5.53
2019-05-17T16:27:33.162Z,5.33
2019-05-17T16:32:39.472Z,4.60
2019-05-17T16:37:43.959Z,5.60
2019-05-17T16:42:48.166Z,4.30
2019-05-17T16:47:52.645Z,4.63
2019-05-17T16:53:05.410Z,4.67
2019-05-17T16:58:02.158Z,5.03
2019-05-17T17:03:06.125Z,4.57
2019-05-17T17:08:09.994Z,5.33
2019-05-17T17:13:14.445Z,4.60
2019-05-17T17:18:18.457Z,4.20
2019-05-17T17:23:22.334Z,4.60
2019-05-17T17:28:26.872Z,4.67
2019-05-17T17:33:31.137Z,4.07
2019-05-17T17:38:35.018Z,4.57
2019-05-17T17:43:38.903Z,4.23
2019-05-17T17:48:45.780Z,4.23
2019-05-17T17:53:48.685Z,4.63
2019-05-17T17:58:52.968Z,5.00
2019-05-17T18:03:57.301Z,4.50
2019-05-17T18:09:01.337Z,4.27
2019-05-17T18:14:13.259Z,4.77
2019-05-17T18:19:13.418Z,4.50
2019-05-17T18:24:18.092Z,4.47
2019-05-17T18:29:22.644Z,5.07
2019-05-17T18:34:26.915Z,4.30
2019-05-17T18:39:31.514Z,3.77
2019-05-17T18:44:36.047Z,4.33
2019-05-17T18:49:41.667Z,4.17
2019-05-17T18:54:45.658Z,4.13
2019-05-17T18:59:50.816Z,3.80
2019-05-17T19:04:55.103Z,3.90
2019-05-17T19:09:59.396Z,4.30
2019-05-17T19:15:04.911Z,4.00
2019-05-17T19:20:09.143Z,4.00
2019-05-17T19:25:15.151Z,4.50
2019-05-17T19:30:19.283Z,4.73
2019-05-17T19:35:23.548Z,4.40
2019-05-17T19:40:28.200Z,4.40
2019-05-17T19:45:33.550Z,4.50
2019-05-17T19:50:37.808Z,4.50
2019-05-17T19:55:42.110Z,4.53
2019-05-17T20:00:46.408Z,4.30
2019-05-17T20:05:50.944Z,4.50
2019-05-17T20:10:54.943Z,4.40
2019-05-17T20:15:58.825Z,4.10
2019-05-17T20:21:03.037Z,4.33
2019-05-17T20:26:07.199Z,4.17
2019-05-17T20:31:11.425Z,4.40
2019-05-17T20:36:15.384Z,4.60
2019-05-17T20:41:19.497Z,4.60
2019-05-17T20:46:23.593Z,4.90
2019-05-17T20:51:27.518Z,4.90
2019-05-17T20:56:33.261Z,5.30
2019-05-17T21:01:37.253Z,5.40
2019-05-17T21:06:41.490Z,5.40
2019-05-17T21:11:45.442Z,5.20
2019-05-17T21:16:50.607Z,5.60
2019-05-17T21:21:54.882Z,5.57
2019-05-17T21:26:59.420Z,5.67
2019-05-17T21:32:03.729Z,5.30
2019-05-17T21:37:08.239Z,5.50
2019-05-17T21:42:12.199Z,5.60
2019-05-17T21:47:16.067Z,5.70
2019-05-17T21:52:20.524Z,5.67
2019-05-17T21:57:24.722Z,6.10
2019-05-17T22:02:29.272Z,6.30
2019-05-17T22:07:33.226Z,6.40
2019-05-17T22:12:37.374Z,6.43
2019-05-17T22:17:41.523Z,6.70
2019-05-17T22:22:45.402Z,6.37
2019-05-17T22:27:49.702Z,6.10
2019-05-17T22:32:53.811Z,6.57
2019-05-17T22:37:58.248Z,7.00
2019-05-17T22:43:02.537Z,6.77
2019-05-17T22:48:07.135Z,6.30
2019-05-17T22:53:11.486Z,6.63
2019-05-17T22:58:16.128Z,6.73
2019-05-17T23:03:22.024Z,7.45
2019-05-17T23:08:26.337Z,8.10
2019-05-17T23:13:30.644Z,7.63
2019-05-17T23:18:34.829Z,7.50
2019-05-17T23:23:38.934Z,6.67
2019-05-17T23:28:42.798Z,6.93
2019-05-17T23:33:46.990Z,7.07
2019-05-17T23:38:51.250Z,7.17
2019-05-17T23:43:55.448Z,7.10
2019-05-17T23:48:59.743Z,7.40
2019-05-17T23:54:04.122Z,7.00
2019-05-17T23:59:08.081Z,7.17
